Time;durP1;ratioP1;P1;durP2;ratioP2;P2;SDS_P1;SDS_P2;PMS_P1;PMS_P2;Temp;Humidity;BMP_temperature;BMP_pressure;BME280_temperature;BME280_humidity;BME280_pressure;Samples;Min_cycle;Max_cycle;Signal;HPM_P1;HPM_P2
2022/06/05 00:00:49;;;;;;;;;;;22.70;65.70;;;;;;5065793;28;19932;-67
2022/06/05 00:03:21;;;;;;;;;;;22.70;65.80;;;;;;5065233;28;20026;-67
2022/06/05 00:05:52;;;;;;;;;;;22.70;66.00;;;;;;5067499;28;20424;-68
2022/06/05 00:08:21;;;;;;;;;;;22.60;66.00;;;;;;5065881;28;19928;-71
2022/06/05 00:10:52;;;;;;;;;;;22.60;66.10;;;;;;5070421;28;19995;-69
2022/06/05 00:13:21;;;;;;;;;;;22.60;66.30;;;;;;5070926;28;19932;-70
2022/06/05 00:15:48;;;;;;;;;;;22.60;66.40;;;;;;5065944;28;19929;-68
2022/06/05 00:18:15;;;;;;;;;;;22.50;66.50;;;;;;5067714;28;19957;-72
2022/06/05 00:20:43;;;;;;;;;;;22.50;66.60;;;;;;5069125;28;19927;-65
2022/06/05 00:23:10;;;;;;;;;;;22.50;66.70;;;;;;5066052;28;19939;-68
2022/06/05 00:25:40;;;;;;;;;;;22.50;66.90;;;;;;5069170;28;19928;-67
2022/06/05 00:28:09;;;;;;;;;;;22.40;66.80;;;;;;5067362;28;19931;-70
2022/06/05 00:30:40;;;;;;;;;;;22.40;67.00;;;;;;5067431;28;19966;-65
2022/06/05 00:33:09;;;;;;;;;;;22.40;67.20;;;;;;5067161;28;20384;-68
2022/06/05 00:35:41;;;;;;;;;;;22.40;67.50;;;;;;5071224;28;19958;-67
2022/06/05 00:38:13;;;;;;;;;;;22.40;67.60;;;;;;5068688;28;20428;-68
2022/06/05 00:40:46;;;;;;;;;;;22.40;67.70;;;;;;5068695;28;19936;-67
2022/06/05 00:43:16;;;;;;;;;;;22.40;67.80;;;;;;5069946;28;19935;-67
2022/06/05 00:45:43;;;;;;;;;;;22.30;67.80;;;;;;5069365;28;19954;-70
2022/06/05 00:48:10;;;;;;;;;;;22.30;67.90;;;;;;5065906;28;19932;-68
2022/06/05 00:50:38;;;;;;;;;;;22.30;67.90;;;;;;5070721;28;19983;-68
2022/06/05 00:53:06;;;;;;;;;;;22.30;68.00;;;;;;5072690;28;19935;-65
2022/06/05 00:55:36;;;;;;;;;;;22.20;68.00;;;;;;5067820;28;19936;-67
2022/06/05 00:58:03;;;;;;;;;;;22.20;68.10;;;;;;5069501;28;19936;-72
2022/06/05 01:00:30;;;;;;;;;;;22.20;68.30;;;;;;5074136;28;19989;-70
2022/06/05 01:02:58;;;;;;;;;;;22.20;68.50;;;;;;5069705;28;20456;-72
2022/06/05 01:05:25;;;;;;;;;;;22.20;68.50;;;;;;5076070;28;19928;-69
2022/06/05 01:07:52;;;;;;;;;;;22.10;68.60;;;;;;5071758;28;19939;-66
2022/06/05 01:10:19;;;;;;;;;;;22.10;68.60;;;;;;5071731;28;19936;-70
2022/06/05 01:12:53;;;;;;;;;;;22.10;69.00;;;;;;5076445;28;19936;-69
2022/06/05 01:15:23;;;;;;;;;;;22.10;68.80;;;;;;5067892;28;20382;-68
2022/06/05 01:17:53;;;;;;;;;;;22.10;68.90;;;;;;5071181;28;19939;-68
2022/06/05 01:20:30;;;;;;;;;;;22.00;68.90;;;;;;5067263;28;20455;-69
2022/06/05 01:23:12;;;;;;;;;;;22.00;68.90;;;;;;5072497;28;19928;-68
2022/06/05 01:25:45;;;;;;;;;;;22.00;69.10;;;;;;5076676;28;19928;-67
2022/06/05 01:28:15;;;;;;;;;;;22.00;69.20;;;;;;5071995;28;19957;-66
2022/06/05 01:30:45;;;;;;;;;;;22.00;69.20;;;;;;5072651;28;19978;-66
2022/06/05 01:33:15;;;;;;;;;;;22.00;69.20;;;;;;5074883;28;19933;-66
2022/06/05 01:35:45;;;;;;;;;;;21.90;69.20;;;;;;5074934;28;19932;-66
2022/06/05 01:38:14;;;;;;;;;;;21.90;69.20;;;;;;5076269;28;19939;-67
2022/06/05 01:40:45;;;;;;;;;;;21.90;69.30;;;;;;5075021;28;19932;-67
2022/06/05 01:43:15;;;;;;;;;;;21.80;69.20;;;;;;5073449;28;19928;-68
2022/06/05 01:45:44;;;;;;;;;;;21.90;69.40;;;;;;5071566;28;19935;-66
2022/06/05 01:48:13;;;;;;;;;;;21.90;69.40;;;;;;5072609;28;20050;-65
2022/06/05 01:50:41;;;;;;;;;;;21.80;69.60;;;;;;5075192;28;19932;-67
2022/06/05 01:53:11;;;;;;;;;;;21.80;69.70;;;;;;5076242;28;19931;-68
2022/06/05 01:55:39;;;;;;;;;;;21.80;69.90;;;;;;5071794;28;19936;-65
2022/06/05 01:58:08;;;;;;;;;;;21.80;70.10;;;;;;5075054;28;19935;-66
2022/06/05 02:00:36;;;;;;;;;;;21.80;70.20;;;;;;5072687;28;19935;-69
2022/06/05 02:03:06;;;;;;;;;;;21.70;70.20;;;;;;5070373;28;19963;-70
2022/06/05 02:05:44;;;;;;;;;;;21.70;70.40;;;;;;5070113;28;19954;-70
2022/06/05 02:08:14;;;;;;;;;;;21.70;70.50;;;;;;5073054;28;19936;-70
2022/06/05 02:10:46;;;;;;;;;;;21.70;70.70;;;;;;5070854;28;19935;-67
2022/06/05 02:13:12;;;;;;;;;;;21.70;70.90;;;;;;5069352;28;20380;-68
2022/06/05 02:15:40;;;;;;;;;;;21.60;71.00;;;;;;5070542;28;19935;-66
2022/06/05 02:18:07;;;;;;;;;;;21.60;71.10;;;;;;5071145;28;19929;-68
2022/06/05 02:20:35;;;;;;;;;;;21.60;71.10;;;;;;5071841;28;19928;-69
2022/06/05 02:23:03;;;;;;;;;;;21.60;71.30;;;;;;5067602;28;19939;-67
2022/06/05 02:25:29;;;;;;;;;;;21.60;71.30;;;;;;5068578;28;20640;-68
2022/06/05 02:27:58;;;;;;;;;;;21.50;71.40;;;;;;5068741;28;20058;-74
2022/06/05 02:30:25;;;;;;;;;;;21.50;71.60;;;;;;5070989;28;19943;-72
2022/06/05 02:33:00;;;;;;;;;;;21.50;71.80;;;;;;5071203;28;19932;-70
2022/06/05 02:35:32;;;;;;;;;;;21.50;71.90;;;;;;5070235;28;19935;-71
2022/06/05 02:38:07;;;;;;;;;;;21.50;72.00;;;;;;5073147;28;19932;-70
2022/06/05 02:40:37;;;;;;;;;;;21.50;72.20;;;;;;5072539;28;19929;-67
2022/06/05 02:43:06;;;;;;;;;;;21.40;72.20;;;;;;5069900;28;19935;-72
2022/06/05 02:45:37;;;;;;;;;;;21.40;72.30;;;;;;5070434;28;20013;-68
2022/06/05 02:48:08;;;;;;;;;;;21.40;72.40;;;;;;5068892;28;20382;-72
2022/06/05 02:50:39;;;;;;;;;;;21.40;72.50;;;;;;5071766;28;20375;-68
2022/06/05 02:53:08;;;;;;;;;;;21.30;72.50;;;;;;5068389;28;19933;-67
2022/06/05 02:55:35;;;;;;;;;;;21.30;72.50;;;;;;5071690;28;19932;-64
2022/06/05 02:58:02;;;;;;;;;;;21.30;72.60;;;;;;5075453;28;19935;-66
2022/06/05 03:00:30;;;;;;;;;;;21.30;72.70;;;;;;5073210;28;19946;-71
2022/06/05 03:05:43;;;;;;;;;;;21.20;72.70;;;;;;5067126;28;19969;-66
2022/06/05 03:08:11;;;;;;;;;;;21.20;72.80;;;;;;5071411;28;19932;-68
2022/06/05 03:10:37;;;;;;;;;;;21.20;72.90;;;;;;5075178;28;19928;-66
2022/06/05 03:13:04;;;;;;;;;;;21.10;72.80;;;;;;5068134;28;19944;-71
2022/06/05 03:15:31;;;;;;;;;;;21.10;72.90;;;;;;5067749;28;20027;-70
2022/06/05 03:17:58;;;;;;;;;;;21.10;72.90;;;;;;5067846;28;20006;-64
2022/06/05 03:20:25;;;;;;;;;;;21.10;73.00;;;;;;5067320;28;19932;-69
2022/06/05 03:22:53;;;;;;;;;;;21.00;72.90;;;;;;5067555;28;19986;-71
2022/06/05 03:25:20;;;;;;;;;;;21.00;73.00;;;;;;5067104;28;19936;-72
2022/06/05 03:27:47;;;;;;;;;;;21.00;73.10;;;;;;5074255;28;19932;-64
2022/06/05 03:30:14;;;;;;;;;;;21.00;73.20;;;;;;5069335;28;20148;-70
2022/06/05 03:32:41;;;;;;;;;;;21.00;73.20;;;;;;5070947;28;19924;-65
2022/06/05 03:35:08;;;;;;;;;;;21.00;73.20;;;;;;5067817;28;19932;-67
2022/06/05 03:37:36;;;;;;;;;;;21.00;73.30;;;;;;5070286;28;20364;-66
2022/06/05 03:40:04;;;;;;;;;;;20.90;73.30;;;;;;5067669;28;19968;-67
2022/06/05 03:42:30;;;;;;;;;;;20.90;73.50;;;;;;5069939;28;19943;-69
2022/06/05 03:44:57;;;;;;;;;;;20.90;73.80;;;;;;5067054;28;19933;-68
2022/06/05 03:47:23;;;;;;;;;;;20.90;74.30;;;;;;5068889;28;19932;-65
2022/06/05 03:49:50;;;;;;;;;;;20.80;74.30;;;;;;5071083;28;19994;-66
2022/06/05 03:52:16;;;;;;;;;;;20.90;74.50;;;;;;5069617;28;19951;-68
2022/06/05 03:54:43;;;;;;;;;;;20.80;74.50;;;;;;5067980;28;19932;-65
2022/06/05 03:57:11;;;;;;;;;;;20.80;74.60;;;;;;5073009;28;19940;-70
2022/06/05 03:59:37;;;;;;;;;;;20.80;74.60;;;;;;5072183;28;19928;-64
2022/06/05 04:02:05;;;;;;;;;;;20.80;74.60;;;;;;5066771;28;19958;-66
2022/06/05 04:04:32;;;;;;;;;;;20.80;74.80;;;;;;5068902;28;19932;-67
2022/06/05 04:06:58;;;;;;;;;;;20.70;75.00;;;;;;5067826;28;19936;-70
2022/06/05 04:09:25;;;;;;;;;;;20.70;75.20;;;;;;5068580;28;19936;-68
2022/06/05 04:11:52;;;;;;;;;;;20.70;75.30;;;;;;5069491;28;20676;-68
2022/06/05 04:14:20;;;;;;;;;;;20.70;75.30;;;;;;5070129;28;19935;-70
2022/06/05 04:16:46;;;;;;;;;;;20.70;75.50;;;;;;5066450;28;19984;-66
2022/06/05 04:19:13;;;;;;;;;;;20.70;75.60;;;;;;5069716;28;19928;-71
2022/06/05 04:21:43;;;;;;;;;;;20.70;75.80;;;;;;5067760;28;19935;-66
2022/06/05 04:24:11;;;;;;;;;;;20.60;75.90;;;;;;5065284;28;19925;-69
2022/06/05 04:26:38;;;;;;;;;;;20.60;76.00;;;;;;5071083;28;20007;-66
2022/06/05 04:29:04;;;;;;;;;;;20.60;76.20;;;;;;5068039;28;19929;-66
2022/06/05 04:31:33;;;;;;;;;;;20.60;76.60;;;;;;5068932;28;19937;-69
2022/06/05 04:34:01;;;;;;;;;;;20.60;77.00;;;;;;5070990;28;19943;-69
2022/06/05 04:36:28;;;;;;;;;;;20.60;77.30;;;;;;5068222;28;19929;-68
2022/06/05 04:38:55;;;;;;;;;;;20.50;77.30;;;;;;5071127;28;19929;-71
2022/06/05 04:41:22;;;;;;;;;;;20.50;77.40;;;;;;5066248;28;19936;-66
2022/06/05 04:43:48;;;;;;;;;;;20.50;77.30;;;;;;5069012;28;19966;-68
2022/06/05 04:46:16;;;;;;;;;;;20.50;77.30;;;;;;5070527;28;19978;-69
2022/06/05 04:48:44;;;;;;;;;;;20.50;77.40;;;;;;5071178;28;19928;-67
2022/06/05 04:51:12;;;;;;;;;;;20.50;77.50;;;;;;5072730;28;19954;-66
2022/06/05 04:53:39;;;;;;;;;;;20.40;77.70;;;;;;5073144;28;20040;-67
2022/06/05 04:56:07;;;;;;;;;;;20.40;77.70;;;;;;5070161;28;20460;-66
2022/06/05 04:58:33;;;;;;;;;;;20.40;77.80;;;;;;5071470;28;19932;-68
2022/06/05 05:01:00;;;;;;;;;;;20.40;77.90;;;;;;5074396;28;20247;-68
2022/06/05 05:03:27;;;;;;;;;;;20.40;77.80;;;;;;5073001;28;19981;-67
2022/06/05 05:05:55;;;;;;;;;;;20.40;77.90;;;;;;5068240;28;20473;-71
2022/06/05 05:08:21;;;;;;;;;;;20.40;77.90;;;;;;5070631;28;19932;-68
2022/06/05 05:10:48;;;;;;;;;;;20.30;77.90;;;;;;5067108;28;20556;-69
2022/06/05 05:13:15;;;;;;;;;;;20.30;78.00;;;;;;5067828;28;20648;-69
2022/06/05 05:15:41;;;;;;;;;;;20.30;77.90;;;;;;5070229;28;21329;-66
2022/06/05 05:18:08;;;;;;;;;;;20.30;77.90;;;;;;5066429;28;20593;-67
2022/06/05 05:20:34;;;;;;;;;;;20.30;78.30;;;;;;5072148;28;19932;-66
2022/06/05 05:23:02;;;;;;;;;;;20.30;78.40;;;;;;5069527;28;19933;-67
2022/06/05 05:25:29;;;;;;;;;;;20.30;78.50;;;;;;5067504;28;19928;-69
2022/06/05 05:27:56;;;;;;;;;;;20.30;78.60;;;;;;5070685;28;19924;-69
2022/06/05 05:30:22;;;;;;;;;;;20.20;78.60;;;;;;5070087;28;19924;-68
2022/06/05 05:32:49;;;;;;;;;;;20.20;78.60;;;;;;5065413;28;19936;-70
2022/06/05 05:35:15;;;;;;;;;;;20.20;78.70;;;;;;5064890;28;19936;-67
2022/06/05 05:37:42;;;;;;;;;;;20.20;78.70;;;;;;5064341;28;19939;-67
2022/06/05 05:42:54;;;;;;;;;;;20.10;78.80;;;;;;5071351;28;20332;-73
2022/06/05 05:45:21;;;;;;;;;;;20.10;78.90;;;;;;5071943;28;20699;-70
2022/06/05 05:47:47;;;;;;;;;;;20.10;79.10;;;;;;5072005;28;19963;-72
2022/06/05 05:50:16;;;;;;;;;;;20.10;79.20;;;;;;5074718;28;19963;-68
2022/06/05 05:52:43;;;;;;;;;;;20.10;79.20;;;;;;5070859;28;19932;-68
2022/06/05 05:55:13;;;;;;;;;;;20.10;79.20;;;;;;5073562;28;20042;-66
2022/06/05 05:57:40;;;;;;;;;;;20.10;79.40;;;;;;5071418;28;19971;-69
2022/06/05 06:00:09;;;;;;;;;;;20.00;79.50;;;;;;5069000;28;19995;-67
2022/06/05 06:02:36;;;;;;;;;;;20.10;79.60;;;;;;5069729;28;20029;-67
2022/06/05 06:05:03;;;;;;;;;;;20.10;79.70;;;;;;5071469;28;19936;-66
2022/06/05 06:07:29;;;;;;;;;;;20.00;79.50;;;;;;5071624;28;19935;-70
2022/06/05 06:09:56;;;;;;;;;;;20.10;79.60;;;;;;5070269;28;20482;-66
2022/06/05 06:12:24;;;;;;;;;;;20.00;79.40;;;;;;5069545;28;20304;-66
2022/06/05 06:14:51;;;;;;;;;;;20.00;79.50;;;;;;5070163;28;19924;-71
2022/06/05 06:17:18;;;;;;;;;;;20.00;79.60;;;;;;5072004;28;19928;-70
2022/06/05 06:19:44;;;;;;;;;;;20.00;79.70;;;;;;5071211;28;19940;-69
2022/06/05 06:22:11;;;;;;;;;;;20.00;79.80;;;;;;5075233;28;19985;-66
2022/06/05 06:24:38;;;;;;;;;;;20.00;79.90;;;;;;5069365;28;20045;-70
2022/06/05 06:27:05;;;;;;;;;;;20.00;80.00;;;;;;5065973;28;19929;-66
2022/06/05 06:29:35;;;;;;;;;;;20.00;80.00;;;;;;5070280;28;20497;-68
2022/06/05 06:32:01;;;;;;;;;;;20.00;79.90;;;;;;5070302;28;20407;-69
2022/06/05 06:34:28;;;;;;;;;;;19.90;79.90;;;;;;5073570;28;19928;-67
2022/06/05 06:36:54;;;;;;;;;;;19.90;79.90;;;;;;5077624;28;20599;-70
2022/06/05 06:39:21;;;;;;;;;;;20.00;80.00;;;;;;5072267;28;20662;-68
2022/06/05 06:41:48;;;;;;;;;;;20.00;80.00;;;;;;5072389;28;19929;-66
2022/06/05 06:44:15;;;;;;;;;;;20.00;80.00;;;;;;5067032;28;20354;-67
2022/06/05 06:46:43;;;;;;;;;;;19.90;80.00;;;;;;5063961;28;19939;-67
2022/06/05 06:49:10;;;;;;;;;;;20.00;80.10;;;;;;5064494;28;19939;-70
2022/06/05 06:51:37;;;;;;;;;;;19.90;80.00;;;;;;5071313;28;19933;-66
2022/06/05 06:54:03;;;;;;;;;;;19.90;80.20;;;;;;5071908;28;19939;-71
2022/06/05 06:56:32;;;;;;;;;;;19.90;80.30;;;;;;5066206;28;19932;-70
2022/06/05 06:58:59;;;;;;;;;;;19.90;80.40;;;;;;5067244;28;19975;-69
2022/06/05 07:01:26;;;;;;;;;;;19.90;80.60;;;;;;5071079;28;19939;-70
2022/06/05 07:03:54;;;;;;;;;;;19.90;80.60;;;;;;5068841;28;19928;-70
2022/06/05 07:06:21;;;;;;;;;;;19.80;80.60;;;;;;5073007;28;19974;-68
2022/06/05 07:08:49;;;;;;;;;;;19.90;80.80;;;;;;5070868;28;19932;-72
2022/06/05 07:11:16;;;;;;;;;;;19.90;80.80;;;;;;5070720;28;19970;-72
2022/06/05 07:13:43;;;;;;;;;;;19.80;80.90;;;;;;5069972;28;19932;-69
2022/06/05 07:16:11;;;;;;;;;;;19.80;81.00;;;;;;5068640;28;19928;-70
2022/06/05 07:18:38;;;;;;;;;;;19.80;81.10;;;;;;5071422;28;20384;-73
2022/06/05 07:21:10;;;;;;;;;;;19.80;81.10;;;;;;5068578;28;19939;-67
2022/06/05 07:23:36;;;;;;;;;;;19.80;81.20;;;;;;5068962;28;19928;-67
2022/06/05 07:26:03;;;;;;;;;;;19.80;81.30;;;;;;5061422;28;19932;-70
2022/06/05 07:28:30;;;;;;;;;;;19.80;81.30;;;;;;5069325;28;19936;-73
2022/06/05 07:30:56;;;;;;;;;;;19.80;81.40;;;;;;5068882;28;19939;-67
2022/06/05 07:33:23;;;;;;;;;;;19.70;81.30;;;;;;5067719;28;21809;-70
2022/06/05 07:35:55;;;;;;;;;;;19.70;82.10;;;;;;5071113;28;19932;-68
2022/06/05 07:38:23;;;;;;;;;;;19.80;81.40;;;;;;5072610;28;19928;-67
2022/06/05 07:40:50;;;;;;;;;;;19.70;81.30;;;;;;5070129;28;20400;-68
2022/06/05 07:43:17;;;;;;;;;;;19.70;81.30;;;;;;5070060;28;19943;-68
2022/06/05 07:45:44;;;;;;;;;;;19.70;81.40;;;;;;5068176;28;20037;-69
2022/06/05 07:48:11;;;;;;;;;;;19.70;81.40;;;;;;5076007;28;19939;-68
2022/06/05 07:54:26;;;;;;;;;;;19.70;82.20;;;;;;5067528;28;19933;-67
2022/06/05 07:56:09;;;;;;;;;;;19.70;81.60;;;;;;5067895;28;19935;-66
2022/06/05 07:58:36;;;;;;;;;;;19.70;81.60;;;;;;5071765;28;19982;-65
2022/06/05 08:01:02;;;;;;;;;;;19.70;81.70;;;;;;5066366;28;19933;-67
2022/06/05 08:03:29;;;;;;;;;;;19.60;81.70;;;;;;5066103;28;19950;-69
2022/06/05 08:05:56;;;;;;;;;;;19.70;81.80;;;;;;5069340;28;19963;-70
2022/06/05 08:08:22;;;;;;;;;;;19.70;81.90;;;;;;5072247;28;20346;-68
2022/06/05 08:10:50;;;;;;;;;;;19.70;81.90;;;;;;5068233;28;19932;-69
2022/06/05 08:13:17;;;;;;;;;;;19.70;82.00;;;;;;5068652;28;19932;-68
2022/06/05 08:15:44;;;;;;;;;;;19.70;82.10;;;;;;5071664;28;19985;-68
2022/06/05 08:18:10;;;;;;;;;;;19.70;82.10;;;;;;5074073;28;19932;-66
2022/06/05 08:20:37;;;;;;;;;;;19.70;82.10;;;;;;5075032;28;19935;-68
2022/06/05 08:23:03;;;;;;;;;;;19.70;82.20;;;;;;5070150;28;19929;-66
2022/06/05 08:25:30;;;;;;;;;;;19.70;82.20;;;;;;5074281;28;19928;-71
2022/06/05 08:27:58;;;;;;;;;;;19.70;82.40;;;;;;5070729;28;19951;-70
2022/06/05 08:30:24;;;;;;;;;;;19.70;82.50;;;;;;5075453;28;19936;-73
2022/06/05 08:32:51;;;;;;;;;;;19.70;82.50;;;;;;5071703;28;19934;-70
2022/06/05 08:35:17;;;;;;;;;;;19.70;82.60;;;;;;5072507;28;20113;-67
2022/06/05 08:43:26;;;;;;;;;;;19.70;83.00;;;;;;5070590;28;19934;-68
2022/06/05 08:45:57;;;;;;;;;;;19.70;82.90;;;;;;5068311;28;19929;-70
2022/06/05 08:48:26;;;;;;;;;;;19.70;82.90;;;;;;5070938;28;20053;-69
2022/06/05 08:50:56;;;;;;;;;;;19.70;83.20;;;;;;5070469;28;19933;-68
2022/06/05 08:53:26;;;;;;;;;;;19.80;83.40;;;;;;5067450;28;20304;-72
2022/06/05 08:55:54;;;;;;;;;;;19.80;83.60;;;;;;5073556;28;19932;-70
2022/06/05 08:58:27;;;;;;;;;;;19.90;83.70;;;;;;5069865;28;20689;-68
2022/06/05 09:00:57;;;;;;;;;;;19.80;83.70;;;;;;5071390;28;20051;-69
2022/06/05 09:03:25;;;;;;;;;;;19.90;83.30;;;;;;5072573;28;19986;-70
2022/06/05 09:05:54;;;;;;;;;;;19.90;83.00;;;;;;5071166;28;19988;-69
2022/06/05 09:08:23;;;;;;;;;;;19.90;82.90;;;;;;5069719;28;20812;-69
2022/06/05 09:10:50;;;;;;;;;;;19.90;83.00;;;;;;5072531;28;21420;-68
2022/06/05 09:13:20;;;;;;;;;;;20.00;83.00;;;;;;5073815;28;19940;-64
2022/06/05 09:15:50;;;;;;;;;;;20.00;83.40;;;;;;5073525;28;20407;-65
2022/06/05 09:18:17;;;;;;;;;;;20.00;83.80;;;;;;5075363;28;19954;-69
2022/06/05 09:20:47;;;;;;;;;;;20.10;83.80;;;;;;5078725;28;20329;-66
2022/06/05 09:23:18;;;;;;;;;;;20.10;83.50;;;;;;5075674;28;19932;-69
2022/06/05 09:25:47;;;;;;;;;;;20.20;83.60;;;;;;5075339;28;19935;-68
2022/06/05 09:28:35;;;;;;;;;;;20.20;83.70;;;;;;5072078;28;20004;-69
2022/06/05 09:31:10;;;;;;;;;;;20.30;83.90;;;;;;5073414;28;20001;-69
2022/06/05 09:33:38;;;;;;;;;;;20.30;83.90;;;;;;5074086;28;19940;-67
2022/06/05 09:36:08;;;;;;;;;;;20.30;83.70;;;;;;5076834;28;20354;-67
2022/06/05 09:38:36;;;;;;;;;;;20.30;83.40;;;;;;5075174;28;19928;-67
2022/06/05 09:41:08;;;;;;;;;;;20.50;83.50;;;;;;5076286;28;19982;-67
2022/06/05 09:43:48;;;;;;;;;;;20.50;83.30;;;;;;5075783;28;19933;-68
2022/06/05 09:46:21;;;;;;;;;;;20.50;83.10;;;;;;5073960;28;20429;-66
2022/06/05 09:48:51;;;;;;;;;;;20.60;82.80;;;;;;5071870;28;19935;-68
2022/06/05 09:51:18;;;;;;;;;;;20.60;82.50;;;;;;5070395;28;21008;-68
2022/06/05 09:53:47;;;;;;;;;;;20.70;82.40;;;;;;5075220;28;19943;-65
2022/06/05 09:56:22;;;;;;;;;;;20.80;82.60;;;;;;5067828;28;19928;-68
2022/06/05 09:58:51;;;;;;;;;;;20.80;82.60;;;;;;5076208;28;19932;-70
2022/06/05 10:01:24;;;;;;;;;;;20.80;82.60;;;;;;5071152;28;20336;-68
2022/06/05 10:03:51;;;;;;;;;;;20.90;82.50;;;;;;5072396;28;20339;-68
2022/06/05 10:06:24;;;;;;;;;;;21.00;82.70;;;;;;5072824;28;20395;-67
2022/06/05 10:08:53;;;;;;;;;;;21.10;82.70;;;;;;5076210;28;19936;-72
2022/06/05 10:11:38;;;;;;;;;;;21.10;82.40;;;;;;5068456;28;19977;-66
2022/06/05 10:14:13;;;;;;;;;;;21.20;82.30;;;;;;5074624;28;20454;-68
2022/06/05 10:16:46;;;;;;;;;;;21.20;82.00;;;;;;5070546;28;19932;-70
2022/06/05 10:19:29;;;;;;;;;;;21.30;81.90;;;;;;5070774;28;19928;-65
2022/06/05 10:21:58;;;;;;;;;;;21.30;81.80;;;;;;5076043;28;19928;-68
2022/06/05 10:24:28;;;;;;;;;;;21.40;81.80;;;;;;5079243;28;20341;-66
2022/06/05 10:26:56;;;;;;;;;;;21.40;81.70;;;;;;5071285;28;20384;-70
2022/06/05 10:29:24;;;;;;;;;;;21.50;81.60;;;;;;5073837;28;19939;-71
2022/06/05 10:31:57;;;;;;;;;;;21.50;81.50;;;;;;5069301;28;20304;-68
2022/06/05 10:34:28;;;;;;;;;;;21.60;81.50;;;;;;5074979;28;20720;-71
2022/06/05 10:37:00;;;;;;;;;;;21.60;81.40;;;;;;5080031;28;19928;-72
2022/06/05 10:39:32;;;;;;;;;;;21.60;81.10;;;;;;5074153;28;19928;-70
2022/06/05 10:42:23;;;;;;;;;;;21.70;81.00;;;;;;5074836;28;19933;-66
2022/06/05 10:44:58;;;;;;;;;;;21.70;80.90;;;;;;5073488;28;19932;-70
2022/06/05 10:47:31;;;;;;;;;;;21.80;80.60;;;;;;5071146;28;19936;-69
2022/06/05 10:50:03;;;;;;;;;;;21.80;80.50;;;;;;5074874;28;19965;-67
2022/06/05 10:52:31;;;;;;;;;;;21.90;80.30;;;;;;5070514;28;20401;-70
2022/06/05 10:55:00;;;;;;;;;;;21.90;80.10;;;;;;5073659;28;19928;-68
2022/06/05 10:57:29;;;;;;;;;;;21.90;79.90;;;;;;5069023;28;20419;-68
2022/06/05 10:59:59;;;;;;;;;;;22.00;79.80;;;;;;5071971;28;19933;-67
2022/06/05 11:02:35;;;;;;;;;;;22.00;79.60;;;;;;5067552;28;19936;-68
2022/06/05 11:05:08;;;;;;;;;;;22.00;79.40;;;;;;5071032;28;20653;-69
2022/06/05 11:07:45;;;;;;;;;;;22.10;79.30;;;;;;5070179;28;20015;-67
2022/06/05 11:10:16;;;;;;;;;;;22.20;79.10;;;;;;5070300;28;19932;-65
2022/06/05 11:15:36;;;;;;;;;;;22.20;79.00;;;;;;5071933;28;19938;-68
2022/06/05 11:18:09;;;;;;;;;;;22.30;78.90;;;;;;5071521;28;19932;-71
2022/06/05 11:20:36;;;;;;;;;;;22.30;78.70;;;;;;5074542;28;19927;-68
2022/06/05 11:23:06;;;;;;;;;;;22.30;78.80;;;;;;5073392;28;19997;-70
2022/06/05 11:25:36;;;;;;;;;;;22.40;78.70;;;;;;5076478;28;19955;-69
2022/06/05 11:28:20;;;;;;;;;;;22.40;78.80;;;;;;5075419;28;19960;-69
2022/06/05 11:30:49;;;;;;;;;;;22.50;78.80;;;;;;5071939;28;19928;-67
2022/06/05 11:33:20;;;;;;;;;;;22.50;78.60;;;;;;5067859;28;20320;-69
2022/06/05 11:35:59;;;;;;;;;;;22.50;78.30;;;;;;5074165;28;19928;-68
2022/06/05 11:38:30;;;;;;;;;;;22.60;78.10;;;;;;5072181;28;21863;-70
2022/06/05 11:40:58;;;;;;;;;;;22.60;78.00;;;;;;5073430;28;19932;-72
2022/06/05 11:43:30;;;;;;;;;;;22.70;77.90;;;;;;5068075;28;19932;-70
2022/06/05 11:46:02;;;;;;;;;;;22.70;77.80;;;;;;5073321;28;20526;-72
2022/06/05 11:48:32;;;;;;;;;;;22.80;77.60;;;;;;5075701;28;19928;-71
2022/06/05 11:51:01;;;;;;;;;;;22.80;77.40;;;;;;5074337;28;19928;-71
2022/06/05 11:53:34;;;;;;;;;;;22.90;77.00;;;;;;5075829;28;19935;-73
2022/06/05 11:56:10;;;;;;;;;;;23.00;76.70;;;;;;5076651;28;19932;-72
2022/06/05 11:58:39;;;;;;;;;;;23.10;76.60;;;;;;5078421;28;20014;-67
2022/06/05 12:01:10;;;;;;;;;;;23.10;76.40;;;;;;5079286;28;19936;-69
2022/06/05 12:03:43;;;;;;;;;;;23.20;76.80;;;;;;5078860;28;19928;-68
2022/06/05 12:06:14;;;;;;;;;;;23.20;76.00;;;;;;5072800;28;19924;-70
2022/06/05 12:08:42;;;;;;;;;;;23.20;75.70;;;;;;5077008;28;19928;-68
2022/06/05 12:11:10;;;;;;;;;;;23.30;75.50;;;;;;5073493;28;19981;-70
2022/06/05 12:13:43;;;;;;;;;;;23.30;75.50;;;;;;5069570;28;19927;-70
2022/06/05 12:16:11;;;;;;;;;;;23.30;75.70;;;;;;5070786;28;19962;-70
2022/06/05 12:18:42;;;;;;;;;;;23.40;75.60;;;;;;5073197;28;19928;-69
2022/06/05 12:21:14;;;;;;;;;;;23.40;75.70;;;;;;5071523;28;19928;-70
2022/06/05 12:23:43;;;;;;;;;;;23.40;76.00;;;;;;5071956;28;19932;-65
2022/06/05 12:26:16;;;;;;;;;;;23.40;76.10;;;;;;5066376;28;20403;-66
2022/06/05 12:28:44;;;;;;;;;;;23.40;76.60;;;;;;5070241;28;19927;-66
2022/06/05 12:31:13;;;;;;;;;;;23.40;76.90;;;;;;5072487;28;19939;-69
2022/06/05 12:33:43;;;;;;;;;;;23.40;77.30;;;;;;5074595;28;19925;-67
2022/06/05 12:36:13;;;;;;;;;;;23.40;77.50;;;;;;5066285;28;19937;-68
2022/06/05 12:38:44;;;;;;;;;;;23.40;77.40;;;;;;5073073;28;19928;-71
2022/06/05 12:41:15;;;;;;;;;;;23.40;77.20;;;;;;5071824;28;19932;-69
2022/06/05 12:43:47;;;;;;;;;;;23.30;77.70;;;;;;5074243;28;20040;-66
2022/06/05 12:46:22;;;;;;;;;;;23.30;77.60;;;;;;5068669;28;20506;-69
2022/06/05 12:48:49;;;;;;;;;;;23.30;77.60;;;;;;5069841;28;19929;-68
2022/06/05 12:51:19;;;;;;;;;;;23.30;77.70;;;;;;5071529;28;19928;-66
2022/06/05 12:53:48;;;;;;;;;;;23.30;77.70;;;;;;5066310;28;19935;-68
2022/06/05 12:56:21;;;;;;;;;;;23.30;78.60;;;;;;5072081;28;19932;-71
2022/06/05 12:58:49;;;;;;;;;;;23.30;78.60;;;;;;5069715;28;19928;-66
2022/06/05 13:01:19;;;;;;;;;;;23.20;78.90;;;;;;5064843;28;19928;-66
2022/06/05 13:03:49;;;;;;;;;;;23.30;79.10;;;;;;5070768;28;19950;-70
2022/06/05 13:06:27;;;;;;;;;;;23.20;79.00;;;;;;5070819;28;20540;-68
2022/06/05 13:08:56;;;;;;;;;;;23.30;79.00;;;;;;5071158;28;19954;-70
2022/06/05 13:11:26;;;;;;;;;;;23.20;79.10;;;;;;5073782;28;19928;-70
2022/06/05 13:13:58;;;;;;;;;;;23.20;79.40;;;;;;5073845;28;19931;-70
2022/06/05 13:16:31;;;;;;;;;;;23.20;79.80;;;;;;5068663;28;20429;-70
2022/06/05 13:19:04;;;;;;;;;;;23.20;80.30;;;;;;5070193;28;19932;-68
2022/06/05 13:21:36;;;;;;;;;;;23.20;80.30;;;;;;5064270;28;19935;-70
2022/06/05 13:24:11;;;;;;;;;;;23.10;80.00;;;;;;5072907;28;19986;-71
2022/06/05 13:26:46;;;;;;;;;;;23.10;80.10;;;;;;5066889;28;19986;-67
2022/06/05 13:29:16;;;;;;;;;;;23.10;80.10;;;;;;5071848;28;19932;-67
2022/06/05 13:31:48;;;;;;;;;;;23.10;80.00;;;;;;5068361;28;19955;-69
2022/06/05 13:34:20;;;;;;;;;;;23.10;79.60;;;;;;5070277;28;19997;-73
2022/06/05 13:36:52;;;;;;;;;;;23.10;79.40;;;;;;5071513;28;19928;-74
2022/06/05 13:39:23;;;;;;;;;;;23.10;79.80;;;;;;5074854;28;19932;-77
2022/06/05 13:41:52;;;;;;;;;;;23.10;80.10;;;;;;5082972;28;19924;-74
2022/06/05 13:44:21;;;;;;;;;;;23.10;80.20;;;;;;5084983;28;19929;-72
2022/06/05 13:46:57;;;;;;;;;;;23.10;80.50;;;;;;5080001;28;19928;-75
2022/06/05 13:49:39;;;;;;;;;;;23.10;81.00;;;;;;5082173;28;20015;-78
2022/06/05 13:52:11;;;;;;;;;;;23.20;81.00;;;;;;5078016;28;19928;-72
2022/06/05 13:54:42;;;;;;;;;;;23.20;80.50;;;;;;5081043;28;20362;-72
2022/06/05 13:57:11;;;;;;;;;;;23.20;80.60;;;;;;5085353;28;19943;-73
2022/06/05 13:59:39;;;;;;;;;;;23.30;80.30;;;;;;5086136;28;19924;-71
2022/06/05 14:02:09;;;;;;;;;;;23.30;79.90;;;;;;5084234;28;19924;-72
2022/06/05 14:04:53;;;;;;;;;;;23.40;79.70;;;;;;5082235;28;19931;-72
2022/06/05 14:07:21;;;;;;;;;;;23.40;79.30;;;;;;5085531;28;20291;-72
2022/06/05 14:09:51;;;;;;;;;;;23.40;78.80;;;;;;5082452;28;19940;-72
2022/06/05 14:12:19;;;;;;;;;;;23.40;79.60;;;;;;5088574;28;19979;-71
2022/06/05 14:14:46;;;;;;;;;;;23.50;78.80;;;;;;5083701;28;19935;-73
2022/06/05 14:17:18;;;;;;;;;;;23.50;78.60;;;;;;5076794;28;19924;-73
2022/06/05 14:19:45;;;;;;;;;;;23.50;78.30;;;;;;5086781;28;19928;-72
2022/06/05 14:22:17;;;;;;;;;;;23.50;78.10;;;;;;5081932;28;20441;-71
2022/06/05 14:24:45;;;;;;;;;;;23.50;78.20;;;;;;5085755;28;19931;-75
2022/06/05 14:27:14;;;;;;;;;;;23.50;78.10;;;;;;5074872;28;20002;-74
2022/06/05 14:29:44;;;;;;;;;;;23.50;78.30;;;;;;5068941;28;19932;-74
2022/06/05 14:32:17;;;;;;;;;;;23.50;78.20;;;;;;5075373;28;19934;-76
2022/06/05 14:34:45;;;;;;;;;;;23.50;78.60;;;;;;5076037;28;19954;-71
2022/06/05 14:37:22;;;;;;;;;;;23.50;78.60;;;;;;5081191;28;19920;-70
2022/06/05 14:39:51;;;;;;;;;;;23.50;78.80;;;;;;5076083;28;20334;-74
2022/06/05 14:42:21;;;;;;;;;;;23.40;78.80;;;;;;5082341;28;19928;-72
2022/06/05 14:44:52;;;;;;;;;;;23.40;79.10;;;;;;5077312;28;19940;-75